Clemons, Iowa
Current Conditions -  °F | °C
As of 12:53 AM on Saturday 29 Nov 2014 (Local Time) from KMIW Reporting Station
Haze Haze  
Wind Chill: -7°   Ceiling: Unl
Heat Index: -2°   Visibility: 6mi
Dew Point: -3°   Wind: 9mph
Humidity: 92%   Direction: 140°SE
Pressure: 29.63"   Gusts: NA
Location:  42.11°N, 93.16°W
Report Text: KMIW 290653Z AUTO 14008KT 6SM BR CLR M02/M03 A2963 RMK AO2 SLP043 T10221033
Loading
Personal Weather Stations






























Interactive Weather Map New forecast layout! Learn more

10-Day Weather Forecast

Advertisements
Track Severe Weather on mobile